Tyonek, Alaska
Current Conditions -  °F | °C
As of 6:53 PM on Tuesday 21 Oct 2014 (Local Time) from PAEN Reporting Station
Clear Clear  
Wind Chill: 30°   Ceiling: Unl
Heat Index: 35°   Visibility: 10mi
Dew Point: 30°   Wind: 6mph
Humidity: 82%   Direction: 40°NE
Pressure: 29.26"   Gusts: NA
Location:  61.07°N, 151.16°W
Report Text: PAEN 220253Z 04005KT 10SM CLR 02/M01 A2926 RMK AO2 SLP909 T00171011 58006
Loading
Personal Weather Stations






























Interactive Weather Map
Tropical Storm Tracking
New forecast layout! Learn more

10-Day Weather Forecast

Advertisements
Track Severe Weather on mobile